createdAt,value
2023-11-15T00:00:13.479Z,9.22
2023-11-15T00:02:40.559Z,9.19
2023-11-15T00:05:07.974Z,9.19
2023-11-15T00:07:39.777Z,9.19
2023-11-15T00:10:06.730Z,9.20
2023-11-15T00:12:35.992Z,9.21
2023-11-15T00:15:07.354Z,9.20
2023-11-15T00:17:34.123Z,9.17
2023-11-15T00:20:05.109Z,9.18
2023-11-15T00:22:34.094Z,9.17
2023-11-15T00:25:01.240Z,9.16
2023-11-15T00:27:30.175Z,9.14
2023-11-15T00:30:01.848Z,9.19
2023-11-15T00:32:30.792Z,9.15
2023-11-15T00:34:57.734Z,9.17
2023-11-15T00:37:24.868Z,9.16
2023-11-15T00:39:51.907Z,9.12
2023-11-15T00:42:18.557Z,9.15
2023-11-15T00:44:45.806Z,9.15
2023-11-15T00:47:12.572Z,9.16
2023-11-15T00:49:45.337Z,9.09
2023-11-15T00:52:15.183Z,9.11
2023-11-15T00:54:44.484Z,9.14
2023-11-15T00:57:15.697Z,9.13
2023-11-15T00:59:47.122Z,9.02
2023-11-15T01:02:17.859Z,9.07
2023-11-15T01:04:51.697Z,9.01
2023-11-15T01:07:19.264Z,8.99
2023-11-15T01:09:51.521Z,8.98
2023-11-15T01:12:18.396Z,8.93
2023-11-15T01:14:48.069Z,9.02
2023-11-15T01:17:15.695Z,9.09
2023-11-15T01:19:42.362Z,8.95
2023-11-15T01:22:09.784Z,8.97
2023-11-15T01:24:40.815Z,8.93
2023-11-15T01:27:12.534Z,9.04
2023-11-15T01:29:42.280Z,9.00
2023-11-15T01:32:09.393Z,8.89
2023-11-15T01:34:36.442Z,8.93
2023-11-15T01:37:06.356Z,8.95
2023-11-15T01:39:38.049Z,8.80
2023-11-15T01:42:07.124Z,8.81
2023-11-15T01:44:35.421Z,8.85
2023-11-15T01:47:02.678Z,8.89
2023-11-15T01:49:29.462Z,8.94
2023-11-15T01:52:00.753Z,8.94
2023-11-15T01:54:32.561Z,8.98
2023-11-15T01:57:01.870Z,9.01
2023-11-15T01:59:31.511Z,9.00
2023-11-15T02:01:58.307Z,9.00
2023-11-15T02:04:28.874Z,8.96
2023-11-15T02:07:00.545Z,8.98
2023-11-15T02:09:30.935Z,8.97
2023-11-15T02:11:57.620Z,8.96
2023-11-15T02:14:24.365Z,8.94
2023-11-15T02:16:53.575Z,8.94
2023-11-15T02:19:22.817Z,8.91
2023-11-15T02:21:49.450Z,8.90
2023-11-15T02:24:16.427Z,8.89
2023-11-15T02:26:47.606Z,8.90
2023-11-15T02:29:14.449Z,8.88
2023-11-15T02:31:43.254Z,8.89
2023-11-15T02:34:12.339Z,8.89
2023-11-15T02:36:41.146Z,8.86
2023-11-15T02:39:08.052Z,8.84
2023-11-15T02:41:34.774Z,8.87
2023-11-15T02:44:03.864Z,8.86
2023-11-15T02:46:30.648Z,8.89
2023-11-15T02:48:59.677Z,8.88
2023-11-15T02:51:26.751Z,8.89
2023-11-15T02:53:53.917Z,8.88
2023-11-15T02:56:20.552Z,8.90
2023-11-15T02:58:47.183Z,8.91
2023-11-15T03:01:14.208Z,8.89
2023-11-15T03:03:46.824Z,8.92
2023-11-15T03:06:16.133Z,8.89
2023-11-15T03:08:42.821Z,8.91
2023-11-15T03:11:09.657Z,8.87
2023-11-15T03:13:38.785Z,8.88
2023-11-15T03:16:07.979Z,8.83
2023-11-15T03:18:34.700Z,8.77
2023-11-15T03:21:04.185Z,8.74
2023-11-15T03:23:33.206Z,8.77
2023-11-15T03:26:00.223Z,8.78
2023-11-15T03:28:26.873Z,8.80
2023-11-15T03:30:53.512Z,8.80
2023-11-15T03:33:20.573Z,8.79
2023-11-15T03:35:52.479Z,8.81
2023-11-15T03:38:19.133Z,8.78
2023-11-15T03:40:49.024Z,8.77
2023-11-15T03:43:16.017Z,8.76
2023-11-15T03:45:44.965Z,8.80
2023-11-15T03:48:12.404Z,8.77
2023-11-15T03:50:41.268Z,8.76
2023-11-15T03:53:08.874Z,8.77
2023-11-15T03:55:38.493Z,8.77
2023-11-15T03:58:07.347Z,8.77
2023-11-15T04:00:39.119Z,8.80
2023-11-15T04:03:07.972Z,8.83
2023-11-15T04:05:34.849Z,8.87
2023-11-15T04:08:03.606Z,8.87
2023-11-15T04:10:32.493Z,8.91
2023-11-15T04:13:03.863Z,8.87
2023-11-15T04:15:30.557Z,8.89
2023-11-15T04:17:59.657Z,8.92
2023-11-15T04:20:26.408Z,8.89
2023-11-15T04:22:55.511Z,8.88
2023-11-15T04:25:22.522Z,8.84
2023-11-15T04:27:53.895Z,8.81
2023-11-15T04:30:20.564Z,8.79
2023-11-15T04:32:49.741Z,8.79
2023-11-15T04:35:19.108Z,8.81
2023-11-15T04:37:48.132Z,8.81
2023-11-15T04:40:19.314Z,8.81
2023-11-15T04:42:46.325Z,8.78
2023-11-15T04:45:15.380Z,8.77
2023-11-15T04:47:42.131Z,8.77
2023-11-15T04:50:09.613Z,8.70
2023-11-15T04:52:36.341Z,8.65
2023-11-15T04:55:03.322Z,8.62
2023-11-15T04:57:30.583Z,8.54
2023-11-15T04:59:57.516Z,8.45
2023-11-15T05:02:25.003Z,8.44
2023-11-15T05:04:53.484Z,8.41
2023-11-15T05:07:21.529Z,8.38
2023-11-15T05:09:51.595Z,8.36
2023-11-15T05:12:21.213Z,8.32
2023-11-15T05:14:50.045Z,8.37
2023-11-15T05:17:16.733Z,8.34
2023-11-15T05:19:45.551Z,8.34
2023-11-15T05:22:12.316Z,8.34
2023-11-15T05:24:39.513Z,8.32
2023-11-15T05:27:11.367Z,8.36
2023-11-15T05:29:38.070Z,8.34
2023-11-15T05:32:05.226Z,8.36
2023-11-15T05:34:31.854Z,8.38
2023-11-15T05:36:58.865Z,8.42
2023-11-15T05:39:25.861Z,8.40
2023-11-15T05:41:54.847Z,8.35
2023-11-15T05:44:21.508Z,8.36
2023-11-15T05:46:50.551Z,8.37
2023-11-15T05:49:17.159Z,8.33
2023-11-15T05:51:43.819Z,8.30
2023-11-15T05:54:15.654Z,8.27
2023-11-15T05:56:50.406Z,8.29
2023-11-15T05:59:17.084Z,8.28
2023-11-15T06:01:44.379Z,8.26
2023-11-15T06:04:13.337Z,8.26
2023-11-15T06:06:42.257Z,8.22
2023-11-15T06:09:14.759Z,8.15
2023-11-15T06:11:43.510Z,8.08
2023-11-15T06:14:10.779Z,8.04
2023-11-15T06:16:42.242Z,8.05
2023-11-15T06:19:09.270Z,8.01
2023-11-15T06:21:42.401Z,8.01
2023-11-15T06:24:10.637Z,8.05
2023-11-15T06:26:40.844Z,8.06
2023-11-15T06:29:08.558Z,8.14
2023-11-15T06:31:39.184Z,8.14
2023-11-15T06:34:07.019Z,8.07
2023-11-15T06:36:36.219Z,8.53
2023-11-15T06:39:04.898Z,8.61
2023-11-15T06:41:39.924Z,8.71
2023-11-15T06:44:09.929Z,8.60
2023-11-15T06:46:40.629Z,8.54
2023-11-15T06:49:08.078Z,8.47
2023-11-15T06:51:35.242Z,8.49
2023-11-15T06:54:04.736Z,8.51
2023-11-15T06:56:31.620Z,8.48
2023-11-15T06:59:00.476Z,8.49
2023-11-15T07:01:27.213Z,8.49
2023-11-15T07:03:55.697Z,8.49
2023-11-15T07:06:24.998Z,8.51
2023-11-15T07:08:51.968Z,8.27
2023-11-15T07:11:23.607Z,8.27
2023-11-15T07:13:50.346Z,8.29
2023-11-15T07:16:21.504Z,8.44
2023-11-15T07:18:49.606Z,8.44
2023-11-15T07:21:20.924Z,8.39
2023-11-15T07:23:49.643Z,8.50
2023-11-15T07:26:19.299Z,8.56
2023-11-15T07:28:46.840Z,8.63
2023-11-15T07:31:16.198Z,8.56
2023-11-15T07:33:45.581Z,8.54
2023-11-15T07:36:13.549Z,8.60
2023-11-15T07:38:45.238Z,8.49
2023-11-15T07:41:12.191Z,8.59
2023-11-15T07:43:42.519Z,8.53
2023-11-15T07:46:12.009Z,8.59
2023-11-15T07:48:38.811Z,8.61
2023-11-15T07:51:06.390Z,8.81
2023-11-15T07:53:33.630Z,8.84
2023-11-15T07:56:03.685Z,8.99
2023-11-15T07:58:30.753Z,9.06
2023-11-15T08:00:58.039Z,9.24
2023-11-15T08:03:32.078Z,9.37
2023-11-15T08:06:02.270Z,9.38
2023-11-15T08:08:28.983Z,9.36
2023-11-15T08:10:57.671Z,9.38
2023-11-15T08:13:29.146Z,9.38
2023-11-15T08:15:57.979Z,9.36
2023-11-15T08:18:27.346Z,9.43
2023-11-15T08:20:54.707Z,9.47
2023-11-15T08:23:24.501Z,9.46
2023-11-15T08:25:53.233Z,9.40
2023-11-15T08:28:25.860Z,9.44
2023-11-15T08:30:52.592Z,9.45
2023-11-15T08:33:21.844Z,9.52
2023-11-15T08:35:49.438Z,9.64
2023-11-15T08:38:16.394Z,9.76
2023-11-15T08:40:50.243Z,9.97
2023-11-15T08:43:18.544Z,10.23
2023-11-15T08:45:48.622Z,10.33
2023-11-15T08:48:19.422Z,10.34
2023-11-15T08:50:51.019Z,10.83
2023-11-15T08:53:19.903Z,11.14
2023-11-15T08:55:50.269Z,10.89
2023-11-15T08:58:22.741Z,10.73
2023-11-15T09:00:54.755Z,10.71
2023-11-15T09:03:23.609Z,10.72
2023-11-15T09:05:50.800Z,10.63
2023-11-15T09:08:23.041Z,10.68
2023-11-15T09:10:52.895Z,10.54
2023-11-15T09:13:20.002Z,10.47
2023-11-15T09:15:54.610Z,10.36
2023-11-15T09:18:25.178Z,10.29
2023-11-15T09:20:53.743Z,10.39
2023-11-15T09:23:28.961Z,10.46
2023-11-15T09:26:01.014Z,10.68
2023-11-15T09:28:32.281Z,10.40
2023-11-15T09:31:01.665Z,10.43
2023-11-15T09:33:31.467Z,10.36
2023-11-15T09:36:01.349Z,10.47
2023-11-15T09:38:28.687Z,10.58
2023-11-15T09:40:55.314Z,10.41
2023-11-15T09:43:27.024Z,10.33
2023-11-15T09:46:00.190Z,10.24
2023-11-15T09:48:34.962Z,10.27
2023-11-15T09:51:05.792Z,10.24
2023-11-15T09:53:37.647Z,10.06
2023-11-15T09:56:08.404Z,10.09
2023-11-15T09:58:38.068Z,10.01
2023-11-15T10:01:06.247Z,10.03
2023-11-15T10:03:33.364Z,10.49
2023-11-15T10:06:07.161Z,10.59
2023-11-15T10:08:34.842Z,10.45
2023-11-15T10:11:06.917Z,10.35
2023-11-15T10:13:40.770Z,10.25
2023-11-15T10:16:37.646Z,10.19
2023-11-15T10:19:27.839Z,10.17
2023-11-15T10:22:06.525Z,10.17
2023-11-15T10:24:36.199Z,10.19
2023-11-15T10:27:12.552Z,10.29
2023-11-15T10:29:41.831Z,10.46
2023-11-15T10:32:09.004Z,10.57
2023-11-15T10:34:48.871Z,10.58
2023-11-15T10:37:15.930Z,10.59
2023-11-15T10:39:49.143Z,10.52
2023-11-15T10:42:20.039Z,10.43
2023-11-15T10:44:54.716Z,10.27
2023-11-15T10:47:24.236Z,10.15
2023-11-15T10:50:05.860Z,10.04
2023-11-15T10:52:36.053Z,9.74
2023-11-15T10:55:06.973Z,9.65
2023-11-15T10:57:36.021Z,9.88
2023-11-15T11:00:10.985Z,9.98
2023-11-15T11:02:42.910Z,9.95
2023-11-15T11:05:11.593Z,9.87
2023-11-15T11:08:11.373Z,9.73
2023-11-15T11:10:51.122Z,9.83
2023-11-15T11:13:24.848Z,10.24
2023-11-15T11:15:52.737Z,10.67
2023-11-15T11:18:23.421Z,11.02
2023-11-15T11:20:57.486Z,11.38
2023-11-15T11:23:28.099Z,11.66
2023-11-15T11:25:56.792Z,11.61
2023-11-15T11:28:28.278Z,11.44
2023-11-15T11:31:22.235Z,11.23
2023-11-15T11:34:10.021Z,11.26
2023-11-15T11:36:58.613Z,11.13
2023-11-15T11:39:48.220Z,11.03
2023-11-15T11:42:27.858Z,10.87
2023-11-15T11:44:58.542Z,10.68
2023-11-15T11:47:27.492Z,10.56
2023-11-15T11:49:57.988Z,10.73
2023-11-15T11:52:24.629Z,10.72
2023-11-15T11:54:54.615Z,10.69
2023-11-15T11:57:22.821Z,10.65
2023-11-15T12:00:20.371Z,10.52
2023-11-15T12:02:54.329Z,10.51
2023-11-15T12:05:27.866Z,10.49
2023-11-15T12:08:00.933Z,10.60
2023-11-15T12:10:30.102Z,10.68
2023-11-15T12:13:03.706Z,10.81
2023-11-15T12:15:30.778Z,10.91
2023-11-15T12:18:01.607Z,10.87
2023-11-15T12:20:41.563Z,10.66
2023-11-15T12:23:18.498Z,10.75
2023-11-15T12:25:59.023Z,10.68
2023-11-15T12:28:36.469Z,10.81
2023-11-15T12:31:06.514Z,10.97
2023-11-15T12:33:35.404Z,11.01
2023-11-15T12:36:07.596Z,11.17
2023-11-15T12:38:34.440Z,11.25
2023-11-15T12:41:06.241Z,11.32
2023-11-15T12:43:36.794Z,11.37
2023-11-15T12:46:20.481Z,11.31
2023-11-15T12:48:49.627Z,11.13
2023-11-15T12:51:19.617Z,10.96
2023-11-15T12:53:46.936Z,10.90
2023-11-15T12:56:18.689Z,10.76
2023-11-15T12:58:46.242Z,10.67
2023-11-15T13:01:17.931Z,10.64
2023-11-15T13:03:45.801Z,10.61
2023-11-15T13:06:16.820Z,10.46
2023-11-15T13:08:51.613Z,10.37
2023-11-15T13:11:27.384Z,10.27
2023-11-15T13:13:59.739Z,10.14
2023-11-15T13:16:28.956Z,10.24
2023-11-15T13:18:58.500Z,10.25
2023-11-15T13:21:26.343Z,10.32
2023-11-15T13:23:57.906Z,10.29
2023-11-15T13:26:26.419Z,10.22
2023-11-15T13:28:54.503Z,10.16
2023-11-15T13:31:25.593Z,10.06
2023-11-15T13:33:57.037Z,10.04
2023-11-15T13:36:29.539Z,10.03
2023-11-15T13:39:02.717Z,10.00
2023-11-15T13:41:29.762Z,10.08
2023-11-15T13:43:56.384Z,10.17
2023-11-15T13:46:29.613Z,10.21
2023-11-15T13:49:03.195Z,10.29
2023-11-15T13:51:32.630Z,10.21
2023-11-15T13:54:01.761Z,10.13
2023-11-15T13:56:29.329Z,10.08
2023-11-15T13:58:58.276Z,10.10
2023-11-15T14:01:25.587Z,10.13
2023-11-15T14:03:54.634Z,10.18
2023-11-15T14:06:21.410Z,10.23
2023-11-15T14:08:56.124Z,10.17
2023-11-15T14:11:30.450Z,10.18
2023-11-15T14:13:59.739Z,10.29
2023-11-15T14:16:29.513Z,10.24
2023-11-15T14:18:58.463Z,10.22
2023-11-15T14:21:27.629Z,10.15
2023-11-15T14:23:58.407Z,10.06
2023-11-15T14:26:26.626Z,10.00
2023-11-15T14:28:54.133Z,9.95
2023-11-15T14:31:23.195Z,9.91
2023-11-15T14:33:55.807Z,9.94
2023-11-15T14:36:26.235Z,9.94
2023-11-15T14:38:55.196Z,10.03
2023-11-15T14:41:23.182Z,10.03
2023-11-15T14:43:54.892Z,10.01
2023-11-15T14:46:26.628Z,9.93
2023-11-15T14:48:53.725Z,9.99
2023-11-15T14:51:25.300Z,9.95
2023-11-15T14:53:56.913Z,9.97
2023-11-15T14:56:24.040Z,9.87
2023-11-15T14:58:55.353Z,9.84
2023-11-15T15:01:28.785Z,9.82
2023-11-15T15:03:55.864Z,9.78
2023-11-15T15:06:23.104Z,9.74
2023-11-15T15:08:50.428Z,9.70
2023-11-15T15:11:19.399Z,9.63
2023-11-15T15:13:46.084Z,9.56
2023-11-15T15:16:13.170Z,9.53
2023-11-15T15:18:42.513Z,9.44
2023-11-15T15:21:11.002Z,9.37
2023-11-15T15:23:37.878Z,9.29
2023-11-15T15:26:08.610Z,9.24
2023-11-15T15:28:35.640Z,9.17
2023-11-15T15:31:06.969Z,9.14
2023-11-15T15:33:38.827Z,9.10
2023-11-15T15:36:10.339Z,9.10
2023-11-15T15:38:37.303Z,9.07
2023-11-15T15:41:08.632Z,9.03
2023-11-15T15:43:37.637Z,9.00
2023-11-15T15:46:04.515Z,8.99
2023-11-15T15:48:33.634Z,8.94
2023-11-15T15:51:06.466Z,8.88
2023-11-15T15:53:37.757Z,8.87
2023-11-15T15:56:05.247Z,8.84
2023-11-15T15:58:34.420Z,8.77
2023-11-15T16:01:01.054Z,8.71
2023-11-15T16:03:28.311Z,8.65
2023-11-15T16:05:55.052Z,8.58
2023-11-15T16:08:21.699Z,8.54
2023-11-15T16:10:51.275Z,8.53
2023-11-15T16:13:20.091Z,8.51
2023-11-15T16:15:47.125Z,8.44
2023-11-15T16:18:16.390Z,8.43
2023-11-15T16:20:43.070Z,8.42
2023-11-15T16:23:11.933Z,8.36
2023-11-15T16:25:38.923Z,8.37
2023-11-15T16:28:07.757Z,8.33
2023-11-15T16:30:37.041Z,8.27
2023-11-15T16:33:04.072Z,8.26
2023-11-15T16:35:33.634Z,8.18
2023-11-15T16:38:00.283Z,8.11
2023-11-15T16:40:29.801Z,8.10
2023-11-15T16:42:56.411Z,7.96
2023-11-15T16:45:25.560Z,7.85
2023-11-15T16:47:54.599Z,7.77
2023-11-15T16:50:21.727Z,7.56
2023-11-15T16:52:51.304Z,7.55
2023-11-15T16:55:20.385Z,7.51
2023-11-15T16:57:47.011Z,7.18
2023-11-15T17:00:14.648Z,7.05
2023-11-15T17:02:45.408Z,7.19
2023-11-15T17:05:14.646Z,7.28
2023-11-15T17:07:41.230Z,7.12
2023-11-15T17:10:10.324Z,6.79
2023-11-15T17:12:36.946Z,6.87
2023-11-15T17:15:04.255Z,7.09
2023-11-15T17:17:33.540Z,7.21
2023-11-15T17:20:01.343Z,7.31
2023-11-15T17:22:28.008Z,7.37
2023-11-15T17:24:56.826Z,7.37
2023-11-15T17:27:25.992Z,7.42
2023-11-15T17:29:53.388Z,7.19
2023-11-15T17:32:23.657Z,7.19
2023-11-15T17:34:53.117Z,7.14
2023-11-15T17:37:19.743Z,7.21
2023-11-15T17:39:48.916Z,7.29
2023-11-15T17:42:17.810Z,7.31
2023-11-15T17:44:46.912Z,7.25
2023-11-15T17:47:18.003Z,7.26
2023-11-15T17:49:45.279Z,7.17
2023-11-15T17:52:14.423Z,7.07
2023-11-15T17:54:41.033Z,7.07
2023-11-15T17:57:07.678Z,7.09
2023-11-15T17:59:34.660Z,7.03
2023-11-15T18:02:05.341Z,7.07
2023-11-15T18:04:36.764Z,7.10
2023-11-15T18:07:04.434Z,7.09
2023-11-15T18:09:33.206Z,7.11
2023-11-15T18:12:03.720Z,7.15
2023-11-15T18:14:32.796Z,7.16
2023-11-15T18:17:04.536Z,7.21
2023-11-15T18:19:31.171Z,7.22
2023-11-15T18:22:00.039Z,7.22
2023-11-15T18:24:26.760Z,7.27
2023-11-15T18:26:53.924Z,7.28
2023-11-15T18:29:22.825Z,7.23
2023-11-15T18:31:52.917Z,7.22
2023-11-15T18:34:20.261Z,7.00
2023-11-15T18:36:46.987Z,7.06
2023-11-15T18:39:16.347Z,7.08
2023-11-15T18:41:44.701Z,7.11
2023-11-15T18:44:16.943Z,7.10
2023-11-15T18:46:44.529Z,7.12
2023-11-15T18:49:14.570Z,7.12
2023-11-15T18:51:43.509Z,7.04
2023-11-15T18:54:12.449Z,6.85
2023-11-15T18:56:39.530Z,6.88
2023-11-15T18:59:08.442Z,6.94
2023-11-15T19:01:38.049Z,7.09
2023-11-15T19:04:09.072Z,7.09
2023-11-15T19:06:35.834Z,7.09
2023-11-15T19:09:02.551Z,7.10
2023-11-15T19:11:32.075Z,6.98
2023-11-15T19:13:59.261Z,6.97
2023-11-15T19:16:28.878Z,6.92
2023-11-15T19:18:56.621Z,6.86
2023-11-15T19:21:25.541Z,6.82
2023-11-15T19:23:52.492Z,6.82
2023-11-15T19:26:25.294Z,6.80
2023-11-15T19:28:54.413Z,6.76
2023-11-15T19:31:25.022Z,6.71
2023-11-15T19:33:53.750Z,6.66
2023-11-15T19:36:23.086Z,6.61
2023-11-15T19:38:49.788Z,6.60
2023-11-15T19:41:22.752Z,6.56
2023-11-15T19:43:49.429Z,6.51
2023-11-15T19:46:19.318Z,6.50
2023-11-15T19:48:47.219Z,6.50
2023-11-15T19:51:37.002Z,6.44
2023-11-15T19:54:08.379Z,6.29
2023-11-15T19:56:35.671Z,6.33
2023-11-15T19:59:05.043Z,6.37
2023-11-15T20:01:34.270Z,6.36
2023-11-15T20:04:05.316Z,6.33
2023-11-15T20:06:32.987Z,6.32
2023-11-15T20:09:00.415Z,6.33
2023-11-15T20:11:29.598Z,6.32
2023-11-15T20:13:58.564Z,6.32
2023-11-15T20:16:28.629Z,6.26
2023-11-15T20:18:55.819Z,6.22
2023-11-15T20:21:24.732Z,6.22
2023-11-15T20:23:53.519Z,6.24
2023-11-15T20:26:20.198Z,6.20
2023-11-15T20:28:49.092Z,6.18
2023-11-15T20:31:15.741Z,6.15
2023-11-15T20:33:44.757Z,6.14
2023-11-15T20:36:11.832Z,6.13
2023-11-15T20:38:43.397Z,6.07
2023-11-15T20:41:11.561Z,6.04
2023-11-15T20:43:42.678Z,5.98
2023-11-15T20:46:17.668Z,5.99
2023-11-15T20:48:47.254Z,5.89
2023-11-15T20:51:16.776Z,5.92
2023-11-15T20:53:43.618Z,5.94
2023-11-15T20:56:10.683Z,5.88
2023-11-15T20:58:37.894Z,5.83
2023-11-15T21:01:07.818Z,5.79
2023-11-15T21:03:37.242Z,5.76
2023-11-15T21:06:07.337Z,5.75
2023-11-15T21:08:38.479Z,5.74
2023-11-15T21:11:13.202Z,5.67
2023-11-15T21:13:44.958Z,5.63
2023-11-15T21:16:19.310Z,5.62
2023-11-15T21:18:52.311Z,5.59
2023-11-15T21:21:22.418Z,5.54
2023-11-15T21:23:51.478Z,5.51
2023-11-15T21:26:18.586Z,5.45
2023-11-15T21:28:48.760Z,5.39
2023-11-15T21:31:17.833Z,5.42
2023-11-15T21:33:44.468Z,5.44
2023-11-15T21:36:15.061Z,5.50
2023-11-15T21:38:41.729Z,5.46
2023-11-15T21:41:11.845Z,5.44
2023-11-15T21:43:38.782Z,5.48
2023-11-15T21:46:06.232Z,5.49
2023-11-15T21:48:34.363Z,5.49
2023-11-15T21:51:01.476Z,5.48
2023-11-15T21:53:32.308Z,5.42
2023-11-15T21:56:03.766Z,5.34
2023-11-15T21:58:33.144Z,5.27
2023-11-15T22:01:02.128Z,5.23
2023-11-15T22:03:28.812Z,5.17
2023-11-15T22:05:57.632Z,5.09
2023-11-15T22:08:24.696Z,5.07
2023-11-15T22:10:54.884Z,5.08
2023-11-15T22:13:24.170Z,5.07
2023-11-15T22:15:53.289Z,5.02
2023-11-15T22:18:20.441Z,5.02
2023-11-15T22:20:49.916Z,4.99
2023-11-15T22:23:18.795Z,4.99
2023-11-15T22:25:45.823Z,5.07
2023-11-15T22:28:14.683Z,5.11
2023-11-15T22:30:44.208Z,5.13
2023-11-15T22:33:15.517Z,5.09
2023-11-15T22:35:49.066Z,4.98
2023-11-15T22:38:16.999Z,4.99
2023-11-15T22:40:43.782Z,4.97
2023-11-15T22:43:14.438Z,4.95
2023-11-15T22:45:41.714Z,4.86
2023-11-15T22:48:08.618Z,4.87
2023-11-15T22:50:35.286Z,4.87
2023-11-15T22:53:04.867Z,4.84
2023-11-15T22:55:31.593Z,4.79
2023-11-15T22:58:00.544Z,4.77
2023-11-15T23:00:37.758Z,4.74
2023-11-15T23:03:10.498Z,4.77
2023-11-15T23:05:39.294Z,4.79
2023-11-15T23:08:09.172Z,4.89
2023-11-15T23:10:44.241Z,4.90
2023-11-15T23:13:11.130Z,4.93
2023-11-15T23:15:37.968Z,4.93
2023-11-15T23:18:07.467Z,5.00
2023-11-15T23:20:39.481Z,5.06
2023-11-15T23:23:08.513Z,5.11
2023-11-15T23:25:35.216Z,5.15
2023-11-15T23:28:01.927Z,5.14
2023-11-15T23:30:36.142Z,5.21
2023-11-15T23:33:03.072Z,5.24
2023-11-15T23:35:34.354Z,5.24
2023-11-15T23:38:01.626Z,5.26
2023-11-15T23:40:31.129Z,5.28
2023-11-15T23:42:57.888Z,5.25
2023-11-15T23:45:26.628Z,5.20
2023-11-15T23:47:56.430Z,5.19
2023-11-15T23:50:24.255Z,5.20
2023-11-15T23:52:54.365Z,5.11
2023-11-15T23:55:22.134Z,5.07
2023-11-15T23:57:51.537Z,5.07
